sensor_id;sensor_type;location;lat;lon;timestamp;temperature;humidity
52615;DHT22;38508;53.158;6.614;2022-11-15T00:01:24;10.50;99.90
52615;DHT22;38508;53.158;6.614;2022-11-15T00:03:53;10.60;99.90
52615;DHT22;38508;53.158;6.614;2022-11-15T00:06:19;10.50;99.90
52615;DHT22;38508;53.158;6.614;2022-11-15T00:08:45;10.40;99.90
52615;DHT22;38508;53.158;6.614;2022-11-15T00:11:11;10.40;99.90
52615;DHT22;38508;53.158;6.614;2022-11-15T00:13:37;10.30;99.90
52615;DHT22;38508;53.158;6.614;2022-11-15T00:16:03;10.30;99.90
52615;DHT22;38508;53.158;6.614;2022-11-15T00:18:30;10.20;99.90
52615;DHT22;38508;53.158;6.614;2022-11-15T00:21:02;10.10;99.90
52615;DHT22;38508;53.158;6.614;2022-11-15T00:23:28;10.00;99.90
52615;DHT22;38508;53.158;6.614;2022-11-15T00:25:57;9.90;99.90
52615;DHT22;38508;53.158;6.614;2022-11-15T00:28:24;9.60;99.90
52615;DHT22;38508;53.158;6.614;2022-11-15T00:30:50;9.60;99.90
52615;DHT22;38508;53.158;6.614;2022-11-15T00:33:16;9.50;99.90
52615;DHT22;38508;53.158;6.614;2022-11-15T00:35:41;9.60;99.90
52615;DHT22;38508;53.158;6.614;2022-11-15T00:38:07;9.60;99.90
52615;DHT22;38508;53.158;6.614;2022-11-15T00:40:33;9.60;99.90
52615;DHT22;38508;53.158;6.614;2022-11-15T00:42:59;9.60;99.90
52615;DHT22;38508;53.158;6.614;2022-11-15T00:45:25;9.50;99.90
52615;DHT22;38508;53.158;6.614;2022-11-15T00:47:51;9.60;99.90
52615;DHT22;38508;53.158;6.614;2022-11-15T00:50:17;9.70;99.90
52615;DHT22;38508;53.158;6.614;2022-11-15T00:52:43;9.70;99.90
52615;DHT22;38508;53.158;6.614;2022-11-15T00:55:19;9.60;99.90
52615;DHT22;38508;53.158;6.614;2022-11-15T00:57:45;9.60;99.90
52615;DHT22;38508;53.158;6.614;2022-11-15T01:00:11;9.50;99.90
52615;DHT22;38508;53.158;6.614;2022-11-15T01:02:38;9.50;99.90
52615;DHT22;38508;53.158;6.614;2022-11-15T01:05:04;9.30;99.90
52615;DHT22;38508;53.158;6.614;2022-11-15T01:07:30;9.50;99.90
52615;DHT22;38508;53.158;6.614;2022-11-15T01:09:55;9.50;99.90
52615;DHT22;38508;53.158;6.614;2022-11-15T01:12:21;9.70;99.90
52615;DHT22;38508;53.158;6.614;2022-11-15T01:14:47;9.70;99.90
52615;DHT22;38508;53.158;6.614;2022-11-15T01:17:12;9.40;99.90
52615;DHT22;38508;53.158;6.614;2022-11-15T01:19:38;9.60;99.90
52615;DHT22;38508;53.158;6.614;2022-11-15T01:22:03;9.40;99.90
52615;DHT22;38508;53.158;6.614;2022-11-15T01:24:29;9.40;99.90
52615;DHT22;38508;53.158;6.614;2022-11-15T01:26:55;9.40;99.90
52615;DHT22;38508;53.158;6.614;2022-11-15T01:29:21;9.40;99.90
52615;DHT22;38508;53.158;6.614;2022-11-15T01:31:46;9.20;99.90
52615;DHT22;38508;53.158;6.614;2022-11-15T01:34:12;9.30;99.90
52615;DHT22;38508;53.158;6.614;2022-11-15T01:36:37;9.40;99.90
52615;DHT22;38508;53.158;6.614;2022-11-15T01:39:03;9.10;99.90
52615;DHT22;38508;53.158;6.614;2022-11-15T01:41:31;9.00;99.90
52615;DHT22;38508;53.158;6.614;2022-11-15T01:47:18;8.80;99.90
52615;DHT22;38508;53.158;6.614;2022-11-15T01:50:04;8.90;99.90
52615;DHT22;38508;53.158;6.614;2022-11-15T01:52:32;8.90;99.90
52615;DHT22;38508;53.158;6.614;2022-11-15T01:57:33;9.10;99.90
52615;DHT22;38508;53.158;6.614;2022-11-15T02:00:01;9.10;99.90
52615;DHT22;38508;53.158;6.614;2022-11-15T02:02:28;9.10;99.90
52615;DHT22;38508;53.158;6.614;2022-11-15T02:04:54;8.90;99.90
52615;DHT22;38508;53.158;6.614;2022-11-15T02:07:20;8.80;99.90
52615;DHT22;38508;53.158;6.614;2022-11-15T02:09:47;8.70;99.90
52615;DHT22;38508;53.158;6.614;2022-11-15T02:12:16;8.80;99.90
52615;DHT22;38508;53.158;6.614;2022-11-15T02:14:46;8.80;99.90
52615;DHT22;38508;53.158;6.614;2022-11-15T02:22:51;9.10;99.90
52615;DHT22;38508;53.158;6.614;2022-11-15T02:31:34;9.00;99.90
52615;DHT22;38508;53.158;6.614;2022-11-15T02:36:35;9.00;99.90
52615;DHT22;38508;53.158;6.614;2022-11-15T02:44:07;9.20;99.90
52615;DHT22;38508;53.158;6.614;2022-11-15T02:46:40;9.40;99.90
52615;DHT22;38508;53.158;6.614;2022-11-15T02:49:29;9.40;99.90
52615;DHT22;38508;53.158;6.614;2022-11-15T02:51:56;9.40;99.90
52615;DHT22;38508;53.158;6.614;2022-11-15T02:54:33;9.30;99.90
52615;DHT22;38508;53.158;6.614;2022-11-15T02:57:12;9.20;99.90
52615;DHT22;38508;53.158;6.614;2022-11-15T03:08:32;9.40;99.90
52615;DHT22;38508;53.158;6.614;2022-11-15T03:11:14;9.40;99.90
52615;DHT22;38508;53.158;6.614;2022-11-15T03:14:29;9.40;99.90
52615;DHT22;38508;53.158;6.614;2022-11-15T03:16:43;9.40;99.90
52615;DHT22;38508;53.158;6.614;2022-11-15T03:21:52;9.30;99.90
52615;DHT22;38508;53.158;6.614;2022-11-15T03:24:21;9.30;99.90
52615;DHT22;38508;53.158;6.614;2022-11-15T03:26:48;9.60;99.90
52615;DHT22;38508;53.158;6.614;2022-11-15T03:29:19;9.50;99.90
52615;DHT22;38508;53.158;6.614;2022-11-15T03:31:53;9.70;99.90
52615;DHT22;38508;53.158;6.614;2022-11-15T03:34:31;9.70;99.90
52615;DHT22;38508;53.158;6.614;2022-11-15T03:36:58;9.60;99.90
52615;DHT22;38508;53.158;6.614;2022-11-15T03:39:25;9.70;99.90
52615;DHT22;38508;53.158;6.614;2022-11-15T03:47:48;9.60;99.90
52615;DHT22;38508;53.158;6.614;2022-11-15T03:50:18;9.40;99.90
52615;DHT22;38508;53.158;6.614;2022-11-15T03:52:46;9.60;99.90
52615;DHT22;38508;53.158;6.614;2022-11-15T03:55:15;9.70;99.90
52615;DHT22;38508;53.158;6.614;2022-11-15T03:57:42;9.90;99.90
52615;DHT22;38508;53.158;6.614;2022-11-15T04:00:08;9.90;99.90
52615;DHT22;38508;53.158;6.614;2022-11-15T04:02:34;9.80;99.90
52615;DHT22;38508;53.158;6.614;2022-11-15T04:04:59;9.80;99.90
52615;DHT22;38508;53.158;6.614;2022-11-15T04:07:25;9.70;99.90
52615;DHT22;38508;53.158;6.614;2022-11-15T04:09:51;9.80;99.90
52615;DHT22;38508;53.158;6.614;2022-11-15T04:12:30;9.90;99.90
52615;DHT22;38508;53.158;6.614;2022-11-15T04:17:51;9.90;99.90
52615;DHT22;38508;53.158;6.614;2022-11-15T04:20:24;9.90;99.90
52615;DHT22;38508;53.158;6.614;2022-11-15T04:23:23;10.00;99.90
52615;DHT22;38508;53.158;6.614;2022-11-15T04:26:15;10.20;99.90
52615;DHT22;38508;53.158;6.614;2022-11-15T04:28:41;10.30;99.90
52615;DHT22;38508;53.158;6.614;2022-11-15T04:31:26;10.40;99.90
52615;DHT22;38508;53.158;6.614;2022-11-15T04:33:53;10.40;99.90
52615;DHT22;38508;53.158;6.614;2022-11-15T04:36:19;10.50;99.90
52615;DHT22;38508;53.158;6.614;2022-11-15T04:39:04;10.50;99.90
52615;DHT22;38508;53.158;6.614;2022-11-15T04:41:30;10.40;99.90
52615;DHT22;38508;53.158;6.614;2022-11-15T04:43:55;10.40;99.90
52615;DHT22;38508;53.158;6.614;2022-11-15T04:46:22;10.40;99.90
52615;DHT22;38508;53.158;6.614;2022-11-15T04:48:49;10.40;99.90
52615;DHT22;38508;53.158;6.614;2022-11-15T04:51:15;10.30;99.90
52615;DHT22;38508;53.158;6.614;2022-11-15T04:53:41;10.20;99.90
52615;DHT22;38508;53.158;6.614;2022-11-15T04:56:06;10.30;99.90
52615;DHT22;38508;53.158;6.614;2022-11-15T04:58:32;10.20;99.90
52615;DHT22;38508;53.158;6.614;2022-11-15T05:00:58;10.20;99.90
52615;DHT22;38508;53.158;6.614;2022-11-15T05:03:23;10.20;99.90
52615;DHT22;38508;53.158;6.614;2022-11-15T05:06:08;10.30;99.90
52615;DHT22;38508;53.158;6.614;2022-11-15T05:08:33;10.30;99.90
52615;DHT22;38508;53.158;6.614;2022-11-15T05:10:59;10.30;99.90
52615;DHT22;38508;53.158;6.614;2022-11-15T05:13:25;10.30;99.90
52615;DHT22;38508;53.158;6.614;2022-11-15T05:15:50;10.20;99.90
52615;DHT22;38508;53.158;6.614;2022-11-15T05:18:16;10.30;99.90
52615;DHT22;38508;53.158;6.614;2022-11-15T05:20:42;10.40;99.90
52615;DHT22;38508;53.158;6.614;2022-11-15T05:23:07;10.50;99.90
52615;DHT22;38508;53.158;6.614;2022-11-15T05:25:33;10.40;99.90
52615;DHT22;38508;53.158;6.614;2022-11-15T05:27:58;10.40;99.90
52615;DHT22;38508;53.158;6.614;2022-11-15T05:30:24;10.30;99.90
52615;DHT22;38508;53.158;6.614;2022-11-15T05:32:50;10.30;99.90
52615;DHT22;38508;53.158;6.614;2022-11-15T05:35:25;10.30;99.90
52615;DHT22;38508;53.158;6.614;2022-11-15T05:37:54;10.40;99.90
52615;DHT22;38508;53.158;6.614;2022-11-15T05:40:20;10.50;99.90
52615;DHT22;38508;53.158;6.614;2022-11-15T05:42:46;10.60;99.90
52615;DHT22;38508;53.158;6.614;2022-11-15T05:45:13;10.60;99.90
52615;DHT22;38508;53.158;6.614;2022-11-15T05:47:39;10.60;99.90
52615;DHT22;38508;53.158;6.614;2022-11-15T05:50:06;10.60;99.90
52615;DHT22;38508;53.158;6.614;2022-11-15T05:52:34;10.60;99.90
52615;DHT22;38508;53.158;6.614;2022-11-15T05:55:02;10.80;99.90
52615;DHT22;38508;53.158;6.614;2022-11-15T05:57:30;10.70;99.90
52615;DHT22;38508;53.158;6.614;2022-11-15T05:59:55;10.70;99.90
52615;DHT22;38508;53.158;6.614;2022-11-15T06:02:21;10.80;99.90
52615;DHT22;38508;53.158;6.614;2022-11-15T06:04:47;10.80;99.90
52615;DHT22;38508;53.158;6.614;2022-11-15T06:07:12;10.80;99.90
52615;DHT22;38508;53.158;6.614;2022-11-15T06:09:38;10.80;99.90
52615;DHT22;38508;53.158;6.614;2022-11-15T06:12:04;10.80;99.90
52615;DHT22;38508;53.158;6.614;2022-11-15T06:14:29;10.90;99.90
52615;DHT22;38508;53.158;6.614;2022-11-15T06:16:55;10.80;99.90
52615;DHT22;38508;53.158;6.614;2022-11-15T06:19:21;10.80;99.90
52615;DHT22;38508;53.158;6.614;2022-11-15T06:21:46;10.90;99.90
52615;DHT22;38508;53.158;6.614;2022-11-15T06:24:12;10.80;99.90
52615;DHT22;38508;53.158;6.614;2022-11-15T06:26:38;10.90;99.90
52615;DHT22;38508;53.158;6.614;2022-11-15T06:29:04;10.90;99.90
52615;DHT22;38508;53.158;6.614;2022-11-15T06:31:30;10.90;99.90
52615;DHT22;38508;53.158;6.614;2022-11-15T06:33:56;10.90;99.90
52615;DHT22;38508;53.158;6.614;2022-11-15T06:36:22;10.90;99.90
52615;DHT22;38508;53.158;6.614;2022-11-15T06:38:47;10.90;99.90
52615;DHT22;38508;53.158;6.614;2022-11-15T06:41:13;10.90;99.90
52615;DHT22;38508;53.158;6.614;2022-11-15T06:43:40;10.90;99.90
52615;DHT22;38508;53.158;6.614;2022-11-15T06:46:07;10.90;99.90
52615;DHT22;38508;53.158;6.614;2022-11-15T06:48:33;11.00;99.90
52615;DHT22;38508;53.158;6.614;2022-11-15T06:51:00;10.90;99.90
52615;DHT22;38508;53.158;6.614;2022-11-15T06:53:27;11.10;99.90
52615;DHT22;38508;53.158;6.614;2022-11-15T06:55:53;11.10;99.90
52615;DHT22;38508;53.158;6.614;2022-11-15T06:58:20;11.10;99.90
52615;DHT22;38508;53.158;6.614;2022-11-15T07:00:46;11.10;99.90
52615;DHT22;38508;53.158;6.614;2022-11-15T07:03:12;11.10;99.90
52615;DHT22;38508;53.158;6.614;2022-11-15T07:05:37;11.10;99.90
52615;DHT22;38508;53.158;6.614;2022-11-15T07:08:04;11.10;99.90
52615;DHT22;38508;53.158;6.614;2022-11-15T07:10:30;11.20;99.90
52615;DHT22;38508;53.158;6.614;2022-11-15T07:12:56;11.30;99.90
52615;DHT22;38508;53.158;6.614;2022-11-15T07:15:24;11.30;99.90
52615;DHT22;38508;53.158;6.614;2022-11-15T07:17:50;11.30;99.90
52615;DHT22;38508;53.158;6.614;2022-11-15T07:20:17;11.40;99.90
52615;DHT22;38508;53.158;6.614;2022-11-15T07:22:43;11.40;99.90
52615;DHT22;38508;53.158;6.614;2022-11-15T07:25:11;11.40;99.90
52615;DHT22;38508;53.158;6.614;2022-11-15T07:27:37;11.30;99.90
52615;DHT22;38508;53.158;6.614;2022-11-15T07:30:03;11.40;99.90
52615;DHT22;38508;53.158;6.614;2022-11-15T07:32:29;11.50;99.90
52615;DHT22;38508;53.158;6.614;2022-11-15T07:34:55;11.60;99.90
52615;DHT22;38508;53.158;6.614;2022-11-15T07:37:20;11.50;99.90
52615;DHT22;38508;53.158;6.614;2022-11-15T07:39:46;11.40;99.90
52615;DHT22;38508;53.158;6.614;2022-11-15T07:42:12;11.50;99.90
52615;DHT22;38508;53.158;6.614;2022-11-15T07:44:56;11.60;99.90
52615;DHT22;38508;53.158;6.614;2022-11-15T07:47:22;11.60;99.90
52615;DHT22;38508;53.158;6.614;2022-11-15T07:49:47;11.70;99.90
52615;DHT22;38508;53.158;6.614;2022-11-15T07:52:13;11.60;99.90
52615;DHT22;38508;53.158;6.614;2022-11-15T07:54:39;11.70;99.90
52615;DHT22;38508;53.158;6.614;2022-11-15T07:57:05;11.60;99.90
52615;DHT22;38508;53.158;6.614;2022-11-15T07:59:32;11.70;99.90
52615;DHT22;38508;53.158;6.614;2022-11-15T08:01:58;11.70;99.90
52615;DHT22;38508;53.158;6.614;2022-11-15T08:04:24;11.80;99.90
52615;DHT22;38508;53.158;6.614;2022-11-15T08:06:49;11.80;99.90
52615;DHT22;38508;53.158;6.614;2022-11-15T08:09:15;11.90;99.90
52615;DHT22;38508;53.158;6.614;2022-11-15T08:11:40;11.70;99.90
52615;DHT22;38508;53.158;6.614;2022-11-15T08:14:06;11.80;99.90
52615;DHT22;38508;53.158;6.614;2022-11-15T08:16:32;11.70;99.90
52615;DHT22;38508;53.158;6.614;2022-11-15T08:18:57;11.70;99.90
52615;DHT22;38508;53.158;6.614;2022-11-15T08:21:23;11.70;99.90
52615;DHT22;38508;53.158;6.614;2022-11-15T08:23:49;11.70;99.90
52615;DHT22;38508;53.158;6.614;2022-11-15T08:26:15;11.90;99.90
52615;DHT22;38508;53.158;6.614;2022-11-15T08:28:41;11.90;99.90
52615;DHT22;38508;53.158;6.614;2022-11-15T08:31:12;12.00;99.90
52615;DHT22;38508;53.158;6.614;2022-11-15T08:33:38;12.10;99.90
52615;DHT22;38508;53.158;6.614;2022-11-15T08:36:04;12.00;99.90
52615;DHT22;38508;53.158;6.614;2022-11-15T08:38:29;12.10;99.90
52615;DHT22;38508;53.158;6.614;2022-11-15T08:41:01;12.00;99.90
52615;DHT22;38508;53.158;6.614;2022-11-15T08:43:27;12.10;99.90
52615;DHT22;38508;53.158;6.614;2022-11-15T08:45:56;12.00;99.90
52615;DHT22;38508;53.158;6.614;2022-11-15T08:48:22;12.00;99.90
52615;DHT22;38508;53.158;6.614;2022-11-15T08:50:47;12.00;99.90
52615;DHT22;38508;53.158;6.614;2022-11-15T08:53:13;12.20;99.90
52615;DHT22;38508;53.158;6.614;2022-11-15T08:55:40;12.20;99.90
52615;DHT22;38508;53.158;6.614;2022-11-15T08:58:05;12.30;99.90
52615;DHT22;38508;53.158;6.614;2022-11-15T09:00:32;12.20;99.90
52615;DHT22;38508;53.158;6.614;2022-11-15T09:02:58;12.40;99.90
52615;DHT22;38508;53.158;6.614;2022-11-15T09:05:25;12.50;99.90
52615;DHT22;38508;53.158;6.614;2022-11-15T09:07:54;12.40;99.90
52615;DHT22;38508;53.158;6.614;2022-11-15T09:10:21;12.30;99.90
52615;DHT22;38508;53.158;6.614;2022-11-15T09:12:47;12.50;99.90
52615;DHT22;38508;53.158;6.614;2022-11-15T09:15:15;12.50;99.90
52615;DHT22;38508;53.158;6.614;2022-11-15T09:17:41;12.70;99.90
52615;DHT22;38508;53.158;6.614;2022-11-15T09:20:07;12.60;99.90
52615;DHT22;38508;53.158;6.614;2022-11-15T09:22:34;12.70;99.90
52615;DHT22;38508;53.158;6.614;2022-11-15T09:25:02;12.70;99.90
52615;DHT22;38508;53.158;6.614;2022-11-15T09:27:29;12.70;99.90
52615;DHT22;38508;53.158;6.614;2022-11-15T09:29:54;12.80;99.90
52615;DHT22;38508;53.158;6.614;2022-11-15T09:32:20;12.80;99.90
52615;DHT22;38508;53.158;6.614;2022-11-15T09:34:48;12.90;99.90
52615;DHT22;38508;53.158;6.614;2022-11-15T09:37:14;13.00;99.90
52615;DHT22;38508;53.158;6.614;2022-11-15T09:39:39;13.00;99.90
52615;DHT22;38508;53.158;6.614;2022-11-15T09:45:20;12.70;99.90
52615;DHT22;38508;53.158;6.614;2022-11-15T09:48:06;13.00;99.90
52615;DHT22;38508;53.158;6.614;2022-11-15T09:50:51;13.10;99.90
52615;DHT22;38508;53.158;6.614;2022-11-15T09:56:02;13.00;99.90
52615;DHT22;38508;53.158;6.614;2022-11-15T09:58:36;13.10;99.90
52615;DHT22;38508;53.158;6.614;2022-11-15T10:01:18;13.10;99.90
52615;DHT22;38508;53.158;6.614;2022-11-15T10:03:45;13.20;99.90
52615;DHT22;38508;53.158;6.614;2022-11-15T10:06:23;13.10;99.90
52615;DHT22;38508;53.158;6.614;2022-11-15T10:11:25;13.10;99.90
52615;DHT22;38508;53.158;6.614;2022-11-15T10:13:52;13.20;99.90
52615;DHT22;38508;53.158;6.614;2022-11-15T10:22:10;13.10;99.90
52615;DHT22;38508;53.158;6.614;2022-11-15T10:24:39;13.10;99.90
52615;DHT22;38508;53.158;6.614;2022-11-15T10:27:12;13.30;99.90
52615;DHT22;38508;53.158;6.614;2022-11-15T10:29:43;13.30;99.90
52615;DHT22;38508;53.158;6.614;2022-11-15T10:32:11;13.50;99.90
52615;DHT22;38508;53.158;6.614;2022-11-15T10:34:37;13.50;99.90
52615;DHT22;38508;53.158;6.614;2022-11-15T10:37:03;13.50;99.90
52615;DHT22;38508;53.158;6.614;2022-11-15T10:39:29;13.50;99.90
52615;DHT22;38508;53.158;6.614;2022-11-15T10:41:54;13.60;99.90
52615;DHT22;38508;53.158;6.614;2022-11-15T10:44:26;13.50;99.90
52615;DHT22;38508;53.158;6.614;2022-11-15T10:49:26;13.30;99.90
52615;DHT22;38508;53.158;6.614;2022-11-15T10:52:12;13.20;99.90
52615;DHT22;38508;53.158;6.614;2022-11-15T10:54:45;13.10;99.90
52615;DHT22;38508;53.158;6.614;2022-11-15T10:57:26;13.20;99.90
52615;DHT22;38508;53.158;6.614;2022-11-15T10:59:59;13.20;99.90
52615;DHT22;38508;53.158;6.614;2022-11-15T11:02:29;13.20;99.90
52615;DHT22;38508;53.158;6.614;2022-11-15T11:04:55;13.20;99.90
52615;DHT22;38508;53.158;6.614;2022-11-15T11:07:25;13.40;99.90
52615;DHT22;38508;53.158;6.614;2022-11-15T11:10:18;13.40;99.90
52615;DHT22;38508;53.158;6.614;2022-11-15T11:12:44;13.30;99.90
52615;DHT22;38508;53.158;6.614;2022-11-15T11:15:14;13.30;99.90
52615;DHT22;38508;53.158;6.614;2022-11-15T11:18:12;13.40;99.90
52615;DHT22;38508;53.158;6.614;2022-11-15T11:20:58;13.50;99.90
52615;DHT22;38508;53.158;6.614;2022-11-15T11:26:18;13.30;99.90
52615;DHT22;38508;53.158;6.614;2022-11-15T11:29:06;13.30;99.90
52615;DHT22;38508;53.158;6.614;2022-11-15T11:31:42;13.30;99.90
52615;DHT22;38508;53.158;6.614;2022-11-15T11:34:44;13.40;99.90
52615;DHT22;38508;53.158;6.614;2022-11-15T11:37:24;13.70;99.90
52615;DHT22;38508;53.158;6.614;2022-11-15T11:43:16;14.40;99.90
52615;DHT22;38508;53.158;6.614;2022-11-15T11:48:56;14.10;99.90
52615;DHT22;38508;53.158;6.614;2022-11-15T11:51:38;14.40;99.90
52615;DHT22;38508;53.158;6.614;2022-11-15T11:54:31;14.80;99.90
52615;DHT22;38508;53.158;6.614;2022-11-15T11:57:00;15.00;99.90
52615;DHT22;38508;53.158;6.614;2022-11-15T12:02:39;14.80;99.90
52615;DHT22;38508;53.158;6.614;2022-11-15T12:05:20;14.50;99.90
52615;DHT22;38508;53.158;6.614;2022-11-15T12:07:49;14.30;99.90
52615;DHT22;38508;53.158;6.614;2022-11-15T12:13:00;14.70;99.90
52615;DHT22;38508;53.158;6.614;2022-11-15T12:15:38;14.70;99.90
52615;DHT22;38508;53.158;6.614;2022-11-15T12:18:04;14.40;99.90
52615;DHT22;38508;53.158;6.614;2022-11-15T12:20:36;14.20;99.90
52615;DHT22;38508;53.158;6.614;2022-11-15T12:23:19;14.30;99.90
52615;DHT22;38508;53.158;6.614;2022-11-15T12:25:56;14.40;99.90
52615;DHT22;38508;53.158;6.614;2022-11-15T12:31:11;14.30;99.90
52615;DHT22;38508;53.158;6.614;2022-11-15T12:33:43;14.30;99.90
52615;DHT22;38508;53.158;6.614;2022-11-15T12:41:29;14.30;99.90
52615;DHT22;38508;53.158;6.614;2022-11-15T12:43:56;14.20;99.90
52615;DHT22;38508;53.158;6.614;2022-11-15T12:48:54;14.10;99.90
52615;DHT22;38508;53.158;6.614;2022-11-15T12:51:22;14.20;99.90
52615;DHT22;38508;53.158;6.614;2022-11-15T12:53:49;14.10;99.90
52615;DHT22;38508;53.158;6.614;2022-11-15T12:58:57;14.60;99.90
52615;DHT22;38508;53.158;6.614;2022-11-15T13:11:56;17.10;99.90
52615;DHT22;38508;53.158;6.614;2022-11-15T13:19:47;16.70;99.90
52615;DHT22;38508;53.158;6.614;2022-11-15T13:22:13;16.50;99.90
52615;DHT22;38508;53.158;6.614;2022-11-15T13:24:57;16.20;99.90
52615;DHT22;38508;53.158;6.614;2022-11-15T13:27:24;15.90;99.90
52615;DHT22;38508;53.158;6.614;2022-11-15T13:29:51;15.80;99.90
52615;DHT22;38508;53.158;6.614;2022-11-15T13:32:18;15.70;99.90
52615;DHT22;38508;53.158;6.614;2022-11-15T13:34:49;15.40;99.90
52615;DHT22;38508;53.158;6.614;2022-11-15T13:39:49;14.80;99.90
52615;DHT22;38508;53.158;6.614;2022-11-15T13:42:17;14.60;99.90
52615;DHT22;38508;53.158;6.614;2022-11-15T13:45:01;14.50;99.90
52615;DHT22;38508;53.158;6.614;2022-11-15T13:47:28;14.40;99.90
52615;DHT22;38508;53.158;6.614;2022-11-15T13:49:58;14.40;99.90
52615;DHT22;38508;53.158;6.614;2022-11-15T13:52:34;14.20;99.90
52615;DHT22;38508;53.158;6.614;2022-11-15T13:55:09;14.40;99.90
52615;DHT22;38508;53.158;6.614;2022-11-15T13:57:41;14.40;99.90
52615;DHT22;38508;53.158;6.614;2022-11-15T14:02:51;14.60;99.90
52615;DHT22;38508;53.158;6.614;2022-11-15T14:05:20;14.60;99.90
52615;DHT22;38508;53.158;6.614;2022-11-15T14:07:58;14.50;99.90
52615;DHT22;38508;53.158;6.614;2022-11-15T14:10:35;14.40;99.90
52615;DHT22;38508;53.158;6.614;2022-11-15T14:13:03;14.10;99.90
52615;DHT22;38508;53.158;6.614;2022-11-15T14:17:57;14.00;99.90
52615;DHT22;38508;53.158;6.614;2022-11-15T14:22:54;14.00;99.90
52615;DHT22;38508;53.158;6.614;2022-11-15T14:25:33;14.10;99.90
52615;DHT22;38508;53.158;6.614;2022-11-15T14:28:27;14.00;99.90
52615;DHT22;38508;53.158;6.614;2022-11-15T14:30:55;14.00;99.90
52615;DHT22;38508;53.158;6.614;2022-11-15T14:35:49;13.70;99.90
52615;DHT22;38508;53.158;6.614;2022-11-15T14:38:15;13.70;99.90
52615;DHT22;38508;53.158;6.614;2022-11-15T14:40:43;13.80;99.90
52615;DHT22;38508;53.158;6.614;2022-11-15T14:43:12;13.90;99.90
52615;DHT22;38508;53.158;6.614;2022-11-15T14:45:39;13.80;99.90
52615;DHT22;38508;53.158;6.614;2022-11-15T14:48:05;13.70;99.90
52615;DHT22;38508;53.158;6.614;2022-11-15T14:50:32;13.60;99.90
52615;DHT22;38508;53.158;6.614;2022-11-15T14:52:58;13.60;99.90
52615;DHT22;38508;53.158;6.614;2022-11-15T14:57:53;13.70;99.90
52615;DHT22;38508;53.158;6.614;2022-11-15T15:00:19;13.70;99.90
52615;DHT22;38508;53.158;6.614;2022-11-15T15:02:46;13.70;99.90
52615;DHT22;38508;53.158;6.614;2022-11-15T15:05:16;13.80;99.90
52615;DHT22;38508;53.158;6.614;2022-11-15T15:07:42;13.80;99.90
52615;DHT22;38508;53.158;6.614;2022-11-15T15:10:09;13.80;99.90
52615;DHT22;38508;53.158;6.614;2022-11-15T15:12:34;13.70;99.90
52615;DHT22;38508;53.158;6.614;2022-11-15T15:15:00;13.60;99.90
52615;DHT22;38508;53.158;6.614;2022-11-15T15:17:26;13.50;99.90
52615;DHT22;38508;53.158;6.614;2022-11-15T15:19:52;13.40;99.90
52615;DHT22;38508;53.158;6.614;2022-11-15T15:22:19;13.30;99.90
52615;DHT22;38508;53.158;6.614;2022-11-15T15:24:48;13.20;99.90
52615;DHT22;38508;53.158;6.614;2022-11-15T15:27:14;13.20;99.90
52615;DHT22;38508;53.158;6.614;2022-11-15T15:29:39;13.00;99.90
52615;DHT22;38508;53.158;6.614;2022-11-15T15:32:05;13.00;99.90
52615;DHT22;38508;53.158;6.614;2022-11-15T15:34:31;13.00;99.90
52615;DHT22;38508;53.158;6.614;2022-11-15T15:39:33;12.90;99.90
52615;DHT22;38508;53.158;6.614;2022-11-15T15:41:58;12.90;99.90
52615;DHT22;38508;53.158;6.614;2022-11-15T15:44:24;12.80;99.90
52615;DHT22;38508;53.158;6.614;2022-11-15T15:46:50;12.70;99.90
52615;DHT22;38508;53.158;6.614;2022-11-15T15:49:15;12.70;99.90
52615;DHT22;38508;53.158;6.614;2022-11-15T15:51:41;12.70;99.90
52615;DHT22;38508;53.158;6.614;2022-11-15T15:54:06;12.70;99.90
52615;DHT22;38508;53.158;6.614;2022-11-15T15:56:32;12.60;99.90
52615;DHT22;38508;53.158;6.614;2022-11-15T15:58:58;12.60;99.90
52615;DHT22;38508;53.158;6.614;2022-11-15T16:01:23;12.60;99.90
52615;DHT22;38508;53.158;6.614;2022-11-15T16:03:50;12.70;99.90
52615;DHT22;38508;53.158;6.614;2022-11-15T16:09:01;12.70;99.90
52615;DHT22;38508;53.158;6.614;2022-11-15T16:11:27;12.60;99.90
52615;DHT22;38508;53.158;6.614;2022-11-15T16:13:53;12.50;99.90
52615;DHT22;38508;53.158;6.614;2022-11-15T16:16:20;12.40;99.90
52615;DHT22;38508;53.158;6.614;2022-11-15T16:18:46;12.50;99.90
52615;DHT22;38508;53.158;6.614;2022-11-15T16:21:12;12.40;99.90
52615;DHT22;38508;53.158;6.614;2022-11-15T16:23:38;12.40;99.90
52615;DHT22;38508;53.158;6.614;2022-11-15T16:26:17;12.40;99.90
52615;DHT22;38508;53.158;6.614;2022-11-15T16:28:43;12.30;99.90
52615;DHT22;38508;53.158;6.614;2022-11-15T16:31:10;12.30;99.90
52615;DHT22;38508;53.158;6.614;2022-11-15T16:33:36;12.40;99.90
52615;DHT22;38508;53.158;6.614;2022-11-15T16:36:03;12.30;99.90
52615;DHT22;38508;53.158;6.614;2022-11-15T16:38:29;12.30;99.90
52615;DHT22;38508;53.158;6.614;2022-11-15T16:40:55;12.30;99.90
52615;DHT22;38508;53.158;6.614;2022-11-15T16:43:21;12.30;99.90
52615;DHT22;38508;53.158;6.614;2022-11-15T16:45:49;12.50;99.90
52615;DHT22;38508;53.158;6.614;2022-11-15T16:48:25;12.40;99.90
52615;DHT22;38508;53.158;6.614;2022-11-15T16:50:56;12.40;99.90
52615;DHT22;38508;53.158;6.614;2022-11-15T16:53:22;12.30;99.90
52615;DHT22;38508;53.158;6.614;2022-11-15T16:55:48;12.30;99.90
52615;DHT22;38508;53.158;6.614;2022-11-15T16:58:13;12.20;99.90
52615;DHT22;38508;53.158;6.614;2022-11-15T17:00:39;12.20;99.90
52615;DHT22;38508;53.158;6.614;2022-11-15T17:03:05;12.30;99.90
52615;DHT22;38508;53.158;6.614;2022-11-15T17:05:31;12.30;99.90
52615;DHT22;38508;53.158;6.614;2022-11-15T17:07:57;12.10;99.90
52615;DHT22;38508;53.158;6.614;2022-11-15T17:10:24;12.10;99.90
52615;DHT22;38508;53.158;6.614;2022-11-15T17:12:51;12.20;99.90
52615;DHT22;38508;53.158;6.614;2022-11-15T17:15:17;12.20;99.90
52615;DHT22;38508;53.158;6.614;2022-11-15T17:17:43;12.20;99.90
52615;DHT22;38508;53.158;6.614;2022-11-15T17:20:17;12.20;99.90
52615;DHT22;38508;53.158;6.614;2022-11-15T17:22:43;12.30;99.90
52615;DHT22;38508;53.158;6.614;2022-11-15T17:25:10;12.40;99.90
52615;DHT22;38508;53.158;6.614;2022-11-15T17:27:35;12.40;99.90
52615;DHT22;38508;53.158;6.614;2022-11-15T17:30:01;12.40;99.90
52615;DHT22;38508;53.158;6.614;2022-11-15T17:32:27;12.30;99.90
52615;DHT22;38508;53.158;6.614;2022-11-15T17:34:53;12.30;99.90
52615;DHT22;38508;53.158;6.614;2022-11-15T17:37:18;12.30;99.90
52615;DHT22;38508;53.158;6.614;2022-11-15T17:39:44;12.30;99.90
52615;DHT22;38508;53.158;6.614;2022-11-15T17:42:09;12.40;99.90
52615;DHT22;38508;53.158;6.614;2022-11-15T17:44:35;12.30;99.90
52615;DHT22;38508;53.158;6.614;2022-11-15T17:47:01;12.40;99.90
52615;DHT22;38508;53.158;6.614;2022-11-15T17:49:27;12.40;99.90
52615;DHT22;38508;53.158;6.614;2022-11-15T17:51:52;12.40;99.90